Monday, December 5, 2016, 11:34 AM EST

KRIC, Richmond International Airport

Location: Sandston, VA, United States Lat: 37.517
Local Time: 11:34 AM EST (16:34 GMT) Lon: -77.317
Time Zone: US/Eastern Elev: 167 ft

Show me the last for .
Show Decoded

2016-12-05 10:54 METAR KRIC 051554Z 33008KT 10SM BKN009 08/06 A3003 RMK AO2 SLP174 T00780056 =
2016-12-05 10:16 METAR KRIC 051516Z VRB03KT 5SM BR BKN008 BKN200 07/05 A3003 RMK AO2 T00720050 =
2016-12-05 09:54 METAR KRIC 051454Z 31006KT 2 1/2SM BR BKN004 BKN200 06/04 A3002 RMK AO2 SLP171
                 T00610044 53009 =
2016-12-05 09:09 METAR KRIC 051409Z 29004KT 1 1/2SM BR OVC003 05/04 A3001 RMK AO2 T00500044 =
2016-12-05 08:54 METAR KRIC 051354Z 30003KT 1/2SM R34/P6000FT FG OVC003 04/04 A3002 RMK AO2
                 SLP170 T00440044 =
2016-12-05 08:41 METAR KRIC 051341Z 30003KT 1/2SM R34/P6000FT FG OVC002 04/04 A3001 RMK AO2
                 T00440039 =
2016-12-05 08:02 METAR KRIC 051302Z 00000KT 1SM R34/1200V2800FT BR OVC002 05/04 A2999 RMK
                 T00500044 =
2016-12-05 07:54 METAR KRIC 051254Z 00000KT 1SM R34/1600V2000FT BR BKN002 OVC250 04/04 A2999 =
2016-12-05 07:38 METAR KRIC 051238Z 00000KT 1SM R34/2600VP6000FT BR BKN002 OVC250 04/04 A2999 RMK
                 TWR VIS 1 1/2 T00390039 =
2016-12-05 07:22 METAR KRIC 051222Z 18003KT 1 1/2SM BR SCT003 OVC250 04/04 A2999 RMK AO2 SFC VIS
                 2 1/2 T00390039 =
2016-12-05 06:54 METAR KRIC 051154Z 00000KT 5SM BR FEW003 SCT040 OVC250 04/04 A2999 RMK AO2
                 SLP162 60020 70031 T00440039 10050 20044 56016 =
2016-12-05 05:54 METAR KRIC 051054Z 16005KT 7SM FEW004 OVC035 05/04 A3000 RMK AO2 RAB32E45 SLP166
                 P0000 T00500039 =
2016-12-05 05:01 METAR KRIC 051001Z 00000KT 6SM BR SCT003 OVC042 05/04 A3003 RMK T00500044 =
2016-12-05 04:54 METAR KRIC 050954Z 00000KT 6SM BR BKN003 OVC040 05/04 A3001 RMK AO2 RAE31 SLP168
                 P0001 T00500044 =
2016-12-05 04:32 METAR KRIC 050932Z 00000KT 4SM BR BKN003 OVC046 04/04 A3002 =
2016-12-05 03:54 METAR KRIC 050854Z 20003KT 4SM -RA BR FEW003 SCT012 OVC040 04/04 A3004 RMK
                 SLP178 P0004 60019 T00440039 58009 =
2016-12-05 02:54 METAR KRIC 050754Z 20004KT 3SM RA BR SCT006 BKN011 OVC035 04/04 A3006 RMK AO2
                 SLP186 P0009 T00440039 =
2016-12-05 02:29 METAR KRIC 050729Z 20005KT 3SM -RA BR BKN005 OVC015 04/04 A3007 RMK AO2 P0005
                 T00440039 =
2016-12-05 01:54 METAR KRIC 050654Z 21004KT 2SM RA BR OVC005 04/04 A3008 RMK AO2 CIG 003V008
                 SLP190 P0006 T00440039 =
2016-12-05 01:30 METAR KRIC 050630Z 18005KT 3SM -RA BR BKN005 OVC011 04/04 A3006 RMK SLP187 P0004
                 T00440039 =
2016-12-05 01:17 METAR KRIC 050617Z 19005KT 2SM RA BR OVC005 04/04 A3006 =
2016-12-05 00:54 METAR KRIC 050554Z COR 18005KT 3SM -RA BR OVC005 04/04 A3007 =
2016-12-05 00:42 METAR KRIC 050542Z 16006KT 2SM -RA BR OVC004 04/04 A3006 RMK AO2 CIG 003V007
                 P0004 T00390039 =
2016-12-05 00:25 METAR KRIC 050525Z 14005KT 2SM -RA BR OVC005 04/03 A3007 RMK AO2 P0003 T00390033
                 =
2016-12-04 23:54 METAR KRIC 050454Z 12004KT 1 3/4SM -RA BR BKN005 BKN013 OVC026 04/03 A3009 RMK
                 AO2 SLP196 CIG 003V009 P0004 T00390033 400670006 =
2016-12-04 23:35 METAR KRIC 050435Z 13006KT 2SM -RA BR BKN005 BKN016 OVC030 04/03 A3010 RMK AO2
                 P0002 T00390033 =
2016-12-04 23:14 METAR KRIC 050414Z 12005KT 2SM -RA BR FEW005 FEW017 OVC025 04/03 A3012 RMK AO2
                 P0001 T00390033 =
2016-12-04 22:54 METAR KRIC 050354Z 12005KT 2 1/2SM -RA BR FEW005 FEW017 OVC033 04/03 A3012 =
2016-12-04 22:44 METAR KRIC 050344Z 12006KT 2 1/2SM -RA BR FEW020 OVC032 04/03 A3013 RMK AO2
                 P0001 T00390028 =
2016-12-04 22:34 METAR KRIC 050334Z 13004KT 2 1/2SM -RA BR FEW020 OVC028 04/03 A3014 RMK AO2
                 P0001 T00390028 =
2016-12-04 22:17 METAR KRIC 050317Z 15003KT 5SM -RA BR OVC029 04/03 A3015 RMK AO2 P0000 T00390028
                 =
2016-12-04 21:54 METAR KRIC 050254Z 13005KT 6SM -RA BR OVC033 04/03 A3014 RMK AO2 SLP212 P0001
                 60002 T00390028 58019 =
2016-12-04 20:54 METAR KRIC 050154Z 12004KT 9SM -RA OVC039 04/02 A3016 RMK AO2 SLP220 P0001
                 T00440022 =
2016-12-04 19:54 METAR KRIC 050054Z 15004KT 10SM -RA BKN043 BKN075 OVC090 05/01 A3018 RMK AO2
                 RAE2358B33 SLP226 P0000 T00500011 =
2016-12-04 18:54 METAR KRIC 042354Z 15003KT 10SM -RA BKN050 BKN070 OVC110 05/01 A3020 RMK AO2
                 SLP231 P0000 60000 T00500006 10067 20050 58001 =
2016-12-04 17:54 METAR KRIC 042254Z 15003KT 10SM -RA BKN055 BKN075 OVC120 06/00 A3021 RMK AO2
                 RAB54 SLP235 P0000 T00560000 =
2016-12-04 16:54 METAR KRIC 042154Z 17004KT 10SM FEW075 OVC095 06/00 A3020 RMK AO2 RAE40 SLP232
                 P0000 T00560000 =
2016-12-04 15:54 METAR KRIC 042054Z 13006KT 10SM -RA BKN070 OVC090 06/M01 A3020 RMK AO2 RAB54
                 SLP232 P0000 60000 T00611011 58019 =
2016-12-04 14:54 METAR KRIC 041954Z 00000KT 10SM SCT080 BKN120 OVC180 07/M02 A3023 RMK AO2 SLP243
                 T00671022 =
2016-12-04 13:54 METAR KRIC 041854Z 00000KT 10SM OVC190 06/M02 A3024 RMK AO2 SLP245 T00611022 =
2016-12-04 12:54 METAR KRIC 041754Z 00000KT 10SM OVC190 06/M02 A3025 =
2016-12-04 11:54 METAR KRIC 041654Z 30003KT 10SM OVC180 06/M02 A3028 =

Support USWX by starting your Amazon purchase here.